createdAt,value
2019-01-16T00:02:59.804Z,42.83
2019-01-16T00:06:21.659Z,46.53
2019-01-16T00:09:34.870Z,43.73
2019-01-16T00:13:13.155Z,42.67
2019-01-16T00:16:36.883Z,33.20
2019-01-16T00:19:58.530Z,36.67
2019-01-16T00:23:18.502Z,36.40
2019-01-16T00:26:40.407Z,31.77
2019-01-16T00:30:18.374Z,33.10
2019-01-16T00:33:44.277Z,35.97
2019-01-16T00:37:14.270Z,37.87
2019-01-16T00:40:26.497Z,29.30
2019-01-16T00:43:41.543Z,30.63
2019-01-16T00:47:03.213Z,23.17
2019-01-16T00:50:25.001Z,29.60
2019-01-16T00:53:48.023Z,30.13
2019-01-16T00:57:26.069Z,25.60
2019-01-16T01:00:48.017Z,32.93
2019-01-16T01:04:09.824Z,34.37
2019-01-16T01:07:24.212Z,34.80
2019-01-16T01:10:47.194Z,29.27
2019-01-16T01:14:06.116Z,35.63
2019-01-16T01:17:28.790Z,28.60
2019-01-16T01:20:50.462Z,29.50
2019-01-16T01:24:09.902Z,19.77
2019-01-16T01:27:32.815Z,28.53
2019-01-16T01:30:53.970Z,25.87
2019-01-16T01:34:15.899Z,28.03
2019-01-16T01:37:54.245Z,26.30
2019-01-16T01:41:20.534Z,31.50
2019-01-16T01:44:46.566Z,40.73
2019-01-16T01:48:12.759Z,47.17
2019-01-16T01:51:29.514Z,38.73
2019-01-16T01:54:42.139Z,40.17
2019-01-16T01:58:00.253Z,32.33
2019-01-16T02:01:29.705Z,45.23
2019-01-16T02:04:51.039Z,54.97
2019-01-16T02:08:13.345Z,49.47
2019-01-16T02:11:35.325Z,29.77
2019-01-16T02:15:01.190Z,51.47
2019-01-16T02:18:14.317Z,49.70
2019-01-16T02:21:43.336Z,24.80
2019-01-16T02:25:04.903Z,49.10
2019-01-16T02:28:21.947Z,34.27
2019-01-16T02:31:54.030Z,60.63
2019-01-16T02:35:15.750Z,39.03
2019-01-16T02:38:53.941Z,19.60
2019-01-16T02:42:17.340Z,29.27
2019-01-16T02:45:39.128Z,44.23
2019-01-16T02:49:14.391Z,31.93
2019-01-16T02:52:40.082Z,27.27
2019-01-16T02:56:02.909Z,41.07
2019-01-16T02:59:18.499Z,30.37
2019-01-16T03:02:40.226Z,28.10
2019-01-16T03:05:57.326Z,33.97
2019-01-16T03:09:29.249Z,35.23
2019-01-16T03:12:46.304Z,33.27
2019-01-16T03:16:27.308Z,42.87
2019-01-16T03:19:49.745Z,34.50
2019-01-16T03:23:11.765Z,29.50
2019-01-16T03:26:33.447Z,34.97
2019-01-16T03:30:02.438Z,32.53
2019-01-16T03:33:23.946Z,40.20
2019-01-16T03:36:49.158Z,39.33
2019-01-16T03:40:15.223Z,48.03
2019-01-16T03:43:28.321Z,27.57
2019-01-16T03:46:40.075Z,35.67
2019-01-16T03:49:55.063Z,35.90
2019-01-16T03:53:17.406Z,35.10
2019-01-16T03:56:46.179Z,37.63
2019-01-16T04:00:06.990Z,37.13
2019-01-16T04:03:25.387Z,39.83
2019-01-16T04:07:00.648Z,36.97
2019-01-16T04:10:30.724Z,39.03
2019-01-16T04:13:47.029Z,32.07
2019-01-16T04:17:11.723Z,41.57
2019-01-16T04:20:24.851Z,32.17
2019-01-16T04:23:43.188Z,44.43
2019-01-16T04:27:11.947Z,42.23
2019-01-16T04:30:31.563Z,26.47
2019-01-16T04:33:53.331Z,40.97
2019-01-16T04:37:11.959Z,56.33
2019-01-16T04:40:35.901Z,36.70
2019-01-16T04:43:51.327Z,30.10
2019-01-16T04:47:32.731Z,39.50
2019-01-16T04:50:55.722Z,43.93
2019-01-16T04:54:31.146Z,30.03
2019-01-16T04:57:54.075Z,41.23
2019-01-16T05:01:28.373Z,47.30
2019-01-16T05:04:50.634Z,28.50
2019-01-16T05:08:25.433Z,39.90
2019-01-16T05:11:47.045Z,36.77
2019-01-16T05:15:15.793Z,38.47
2019-01-16T05:18:37.567Z,37.00
2019-01-16T05:22:00.715Z,36.10
2019-01-16T05:25:29.939Z,26.50
2019-01-16T05:28:58.886Z,40.47
2019-01-16T05:32:20.438Z,37.00
2019-01-16T05:35:43.335Z,39.63
2019-01-16T05:39:06.351Z,36.30
2019-01-16T05:42:35.400Z,48.97
2019-01-16T05:45:50.394Z,25.57
2019-01-16T05:49:13.281Z,36.37
2019-01-16T05:52:51.409Z,37.33
2019-01-16T05:56:13.431Z,40.07
2019-01-16T05:59:35.001Z,45.83
2019-01-16T06:03:16.404Z,26.83
2019-01-16T06:06:37.413Z,42.57
2019-01-16T06:10:01.618Z,44.13
2019-01-16T06:13:36.623Z,36.23
2019-01-16T06:16:51.201Z,50.23
2019-01-16T06:20:23.377Z,31.10
2019-01-16T06:23:45.307Z,40.97
2019-01-16T06:27:14.238Z,45.23
2019-01-16T06:30:36.271Z,38.17
2019-01-16T06:33:58.137Z,44.43
2019-01-16T06:37:21.024Z,35.70
2019-01-16T06:40:43.859Z,51.73
2019-01-16T06:44:15.895Z,36.30
2019-01-16T06:47:45.860Z,40.67
2019-01-16T06:51:01.352Z,26.87
2019-01-16T06:54:24.830Z,41.20
2019-01-16T06:57:46.842Z,42.90
2019-01-16T07:00:58.771Z,36.27
2019-01-16T07:04:17.823Z,28.13
2019-01-16T07:07:39.940Z,37.53
2019-01-16T07:11:01.912Z,35.30
2019-01-16T07:14:13.696Z,36.30
2019-01-16T07:17:35.669Z,31.90
2019-01-16T07:20:56.209Z,28.20
2019-01-16T07:24:19.914Z,26.03
2019-01-16T07:27:40.694Z,42.17
2019-01-16T07:30:58.227Z,39.43
2019-01-16T07:34:18.203Z,30.37
2019-01-16T07:37:44.230Z,31.27
2019-01-16T07:40:57.371Z,26.53
2019-01-16T07:44:18.891Z,26.03
2019-01-16T07:47:32.549Z,28.47
2019-01-16T07:51:01.366Z,40.53
2019-01-16T07:54:33.364Z,32.17
2019-01-16T07:57:59.222Z,33.60
2019-01-16T08:01:22.299Z,38.40
2019-01-16T08:04:44.474Z,30.53
2019-01-16T08:08:10.297Z,22.87
2019-01-16T08:11:24.905Z,32.80
2019-01-16T08:14:46.342Z,36.40
2019-01-16T08:18:12.487Z,29.40
2019-01-16T08:21:34.093Z,28.67
2019-01-16T08:24:51.518Z,24.53
2019-01-16T08:28:15.607Z,21.77
2019-01-16T08:31:56.915Z,31.33
2019-01-16T08:35:22.577Z,25.23
2019-01-16T08:38:40.764Z,30.50
2019-01-16T08:42:03.474Z,48.60
2019-01-16T08:45:37.328Z,31.23
2019-01-16T08:49:00.149Z,31.03
2019-01-16T08:52:38.562Z,30.70
2019-01-16T08:56:16.559Z,26.63
2019-01-16T08:59:38.722Z,21.30
2019-01-16T09:02:52.082Z,24.07
2019-01-16T09:06:14.988Z,18.80
2019-01-16T09:09:40.647Z,29.37
2019-01-16T09:13:02.199Z,22.77
2019-01-16T09:16:19.938Z,27.13
2019-01-16T09:19:36.730Z,27.57
2019-01-16T09:23:05.829Z,19.93
2019-01-16T09:26:31.626Z,25.40
2019-01-16T09:29:44.768Z,28.07
2019-01-16T09:33:13.702Z,27.83
2019-01-16T09:36:30.991Z,29.00
2019-01-16T09:40:09.153Z,32.17
2019-01-16T09:43:30.626Z,12.70
2019-01-16T09:46:44.648Z,25.93
2019-01-16T09:50:07.503Z,29.00
2019-01-16T09:53:39.771Z,36.60
2019-01-16T09:56:55.996Z,30.20
2019-01-16T10:00:37.598Z,34.67
2019-01-16T10:04:04.698Z,19.60
2019-01-16T10:07:45.872Z,27.63
2019-01-16T10:11:17.433Z,18.63
2019-01-16T10:14:43.237Z,27.63
2019-01-16T10:18:10.556Z,32.37
2019-01-16T10:21:36.132Z,17.00
2019-01-16T10:24:52.896Z,17.10
2019-01-16T10:28:09.921Z,26.07
2019-01-16T10:31:39.111Z,20.57
2019-01-16T10:35:05.460Z,22.13
2019-01-16T10:38:46.555Z,23.67
2019-01-16T10:42:08.156Z,21.73
2019-01-16T10:45:31.551Z,21.40
2019-01-16T10:48:49.897Z,16.63
2019-01-16T10:52:31.144Z,22.03
2019-01-16T10:55:59.644Z,26.90
2019-01-16T10:59:37.485Z,25.50
2019-01-16T11:02:59.075Z,25.23
2019-01-16T11:06:17.443Z,16.50
2019-01-16T11:09:48.801Z,23.03
2019-01-16T11:13:10.828Z,13.53
2019-01-16T11:16:32.563Z,22.70
2019-01-16T11:19:54.388Z,23.70
2019-01-16T11:23:17.169Z,17.17
2019-01-16T11:26:43.255Z,30.93
2019-01-16T11:30:09.004Z,25.60
2019-01-16T11:33:35.826Z,21.87
2019-01-16T11:37:09.453Z,28.57
2019-01-16T11:40:32.559Z,18.87
2019-01-16T11:43:54.426Z,24.17
2019-01-16T11:47:17.569Z,22.20
2019-01-16T11:50:31.959Z,24.83
2019-01-16T11:53:53.845Z,17.67
2019-01-16T11:57:15.825Z,21.80
2019-01-16T12:00:31.424Z,21.80
2019-01-16T12:04:00.377Z,17.33
2019-01-16T12:07:13.620Z,14.47
2019-01-16T12:10:48.917Z,21.93
2019-01-16T12:14:10.691Z,12.53
2019-01-16T12:17:39.104Z,14.10
2019-01-16T12:21:00.768Z,15.83
2019-01-16T12:24:25.405Z,12.43
2019-01-16T12:27:48.419Z,7.00
2019-01-16T12:31:13.052Z,7.50
2019-01-16T12:34:35.986Z,8.47
2019-01-16T12:38:17.301Z,7.17
2019-01-16T12:41:47.944Z,8.30
2019-01-16T12:45:09.806Z,5.50
2019-01-16T12:48:39.051Z,8.33
2019-01-16T12:51:50.667Z,8.00
2019-01-16T12:55:12.909Z,8.67
2019-01-16T12:58:30.566Z,8.17
2019-01-16T13:01:59.706Z,12.67
2019-01-16T13:05:20.655Z,11.97
2019-01-16T13:08:46.992Z,13.87
2019-01-16T13:12:08.875Z,14.43
2019-01-16T13:15:30.491Z,7.77
2019-01-16T13:18:58.533Z,6.33
2019-01-16T13:22:12.004Z,7.87
2019-01-16T13:25:39.843Z,6.17
2019-01-16T13:29:01.965Z,4.37
2019-01-16T13:32:18.776Z,9.47
2019-01-16T13:35:40.680Z,13.63
2019-01-16T13:39:02.764Z,9.37
2019-01-16T13:42:14.329Z,13.80
2019-01-16T13:45:40.197Z,14.77
2019-01-16T13:49:01.998Z,21.07
2019-01-16T13:52:34.997Z,10.23
2019-01-16T13:55:56.653Z,18.13
2019-01-16T13:59:23.680Z,17.03
2019-01-16T14:02:46.561Z,16.07
2019-01-16T14:06:03.230Z,14.70
2019-01-16T14:09:33.615Z,15.03
2019-01-16T14:12:55.267Z,14.20
2019-01-16T14:16:20.238Z,17.87
2019-01-16T14:19:48.275Z,15.20
2019-01-16T14:23:09.728Z,13.33
2019-01-16T14:26:32.365Z,17.60
2019-01-16T14:29:54.076Z,15.07
2019-01-16T14:33:15.713Z,16.47
2019-01-16T14:36:38.845Z,9.43
2019-01-16T14:40:01.747Z,13.63
2019-01-16T14:43:31.022Z,17.53
2019-01-16T14:46:45.189Z,10.67
2019-01-16T14:49:56.445Z,9.43
2019-01-16T14:53:19.291Z,10.63
2019-01-16T14:56:41.308Z,11.47
2019-01-16T15:00:04.327Z,14.23
2019-01-16T15:03:27.294Z,24.27
2019-01-16T15:06:50.705Z,19.83
2019-01-16T15:10:11.755Z,19.67
2019-01-16T15:13:23.727Z,12.23
2019-01-16T15:16:58.497Z,23.30
2019-01-16T15:20:19.588Z,16.67
2019-01-16T15:23:41.937Z,19.17
2019-01-16T15:27:08.120Z,19.73
2019-01-16T15:30:40.229Z,16.23
2019-01-16T15:34:02.229Z,16.57
2019-01-16T15:37:24.527Z,14.70
2019-01-16T15:40:48.378Z,21.33
2019-01-16T15:44:17.371Z,18.63
2019-01-16T15:47:39.961Z,19.93
2019-01-16T15:51:12.352Z,19.00
2019-01-16T15:54:27.403Z,16.33
2019-01-16T15:57:38.578Z,19.63
2019-01-16T16:01:02.249Z,20.50
2019-01-16T16:04:21.918Z,20.33
2019-01-16T16:07:51.186Z,16.93
2019-01-16T16:11:05.502Z,17.93
2019-01-16T16:14:41.118Z,16.23
2019-01-16T16:18:02.926Z,19.60
2019-01-16T16:21:32.177Z,21.10
2019-01-16T16:25:03.231Z,21.77
2019-01-16T16:28:38.213Z,23.50
2019-01-16T16:32:01.634Z,23.60
2019-01-16T16:35:36.878Z,22.00
2019-01-16T16:39:06.092Z,26.90
2019-01-16T16:42:26.761Z,29.30
2019-01-16T16:45:40.346Z,25.70
2019-01-16T16:49:06.220Z,30.10
2019-01-16T16:52:31.763Z,25.87
2019-01-16T16:55:47.029Z,29.97
2019-01-16T16:59:11.638Z,17.77
2019-01-16T17:02:46.916Z,20.97
2019-01-16T17:06:09.824Z,16.80
2019-01-16T17:09:32.743Z,19.33
2019-01-16T17:12:58.604Z,23.07
2019-01-16T17:16:17.775Z,29.03
2019-01-16T17:19:39.604Z,25.63
2019-01-16T17:23:02.470Z,26.13
2019-01-16T17:26:24.546Z,29.93
2019-01-16T17:29:46.253Z,29.07
2019-01-16T17:33:06.575Z,29.50
2019-01-16T17:36:26.920Z,32.10
2019-01-16T17:39:49.759Z,29.83
2019-01-16T17:43:11.653Z,26.17
2019-01-16T17:46:40.754Z,30.57
2019-01-16T17:50:02.172Z,30.33
2019-01-16T17:53:28.220Z,30.53
2019-01-16T17:56:56.346Z,29.73
2019-01-16T18:00:18.108Z,29.07
2019-01-16T18:03:45.319Z,27.33
2019-01-16T18:07:02.350Z,31.93
2019-01-16T18:10:26.607Z,29.00
2019-01-16T18:13:45.902Z,33.33
2019-01-16T18:17:11.703Z,25.13
2019-01-16T18:20:41.560Z,26.37
2019-01-16T18:24:02.926Z,36.53
2019-01-16T18:27:24.499Z,32.57
2019-01-16T18:30:50.424Z,34.70
2019-01-16T18:34:06.189Z,33.50
2019-01-16T18:37:37.559Z,40.47
2019-01-16T18:41:00.558Z,30.03
2019-01-16T18:44:17.872Z,35.70
2019-01-16T18:47:52.715Z,33.63
2019-01-16T18:51:15.731Z,35.97
2019-01-16T18:54:48.040Z,31.87
2019-01-16T18:58:01.532Z,32.03
2019-01-16T19:01:23.186Z,34.40
2019-01-16T19:04:35.920Z,36.60
2019-01-16T19:08:04.949Z,39.93
2019-01-16T19:11:37.026Z,29.57
2019-01-16T19:14:58.728Z,33.00
2019-01-16T19:18:20.627Z,28.10
2019-01-16T19:21:39.307Z,33.03
2019-01-16T19:25:08.098Z,45.93
2019-01-16T19:28:28.289Z,45.63
2019-01-16T19:31:49.059Z,32.40
2019-01-16T19:35:09.273Z,33.40
2019-01-16T19:38:34.567Z,41.07
2019-01-16T19:41:56.148Z,49.07
2019-01-16T19:45:15.958Z,46.97
2019-01-16T19:48:44.715Z,43.40
2019-01-16T19:52:01.914Z,41.40
2019-01-16T19:55:28.918Z,35.43
2019-01-16T19:58:57.677Z,38.63
2019-01-16T20:02:26.029Z,40.00
2019-01-16T20:05:43.136Z,34.73
2019-01-16T20:09:01.203Z,35.80
2019-01-16T20:12:22.839Z,32.43
2019-01-16T20:15:42.399Z,34.07
2019-01-16T20:19:04.581Z,31.90
2019-01-16T20:22:33.672Z,24.00
2019-01-16T20:25:47.934Z,23.20
2019-01-16T20:29:09.600Z,32.23
2019-01-16T20:32:41.755Z,28.57
2019-01-16T20:35:54.505Z,30.63
2019-01-16T20:39:11.830Z,28.77
2019-01-16T20:42:23.813Z,25.97
2019-01-16T20:45:50.916Z,28.73
2019-01-16T20:49:24.826Z,22.13
2019-01-16T20:52:41.889Z,33.60
2019-01-16T20:56:02.094Z,25.87
2019-01-16T20:59:24.150Z,32.23
2019-01-16T21:02:45.556Z,28.40
2019-01-16T21:06:07.911Z,26.27
2019-01-16T21:09:32.201Z,26.47
2019-01-16T21:12:57.114Z,31.77
2019-01-16T21:16:19.951Z,25.47
2019-01-16T21:19:34.414Z,27.00
2019-01-16T21:23:03.941Z,22.83
2019-01-16T21:26:25.589Z,20.10
2019-01-16T21:29:48.417Z,21.30
2019-01-16T21:33:17.989Z,28.10
2019-01-16T21:36:40.994Z,24.17
2019-01-16T21:39:53.920Z,18.67
2019-01-16T21:43:22.375Z,19.80
2019-01-16T21:46:38.376Z,23.73
2019-01-16T21:50:16.529Z,18.13
2019-01-16T21:53:48.574Z,25.53
2019-01-16T21:57:16.746Z,26.33
2019-01-16T22:00:58.099Z,24.43
2019-01-16T22:04:14.122Z,27.50
2019-01-16T22:07:33.889Z,30.23
2019-01-16T22:11:05.878Z,34.57
2019-01-16T22:14:18.679Z,42.33
2019-01-16T22:17:50.372Z,35.87
2019-01-16T22:21:16.780Z,39.60
2019-01-16T22:24:51.746Z,33.37
2019-01-16T22:28:05.372Z,38.80
2019-01-16T22:31:26.937Z,26.43
2019-01-16T22:34:58.945Z,22.20
2019-01-16T22:38:10.768Z,16.63
2019-01-16T22:41:22.446Z,19.27
2019-01-16T22:44:42.834Z,11.43
2019-01-16T22:48:02.196Z,11.53
2019-01-16T22:51:31.026Z,12.03
2019-01-16T22:54:56.879Z,13.70
2019-01-16T22:58:19.791Z,18.73
2019-01-16T23:01:41.456Z,15.67
2019-01-16T23:04:55.874Z,16.67
2019-01-16T23:08:05.834Z,8.17
2019-01-16T23:11:25.006Z,9.27
2019-01-16T23:14:47.027Z,5.00
2019-01-16T23:18:16.130Z,6.23
2019-01-16T23:21:43.691Z,4.73
2019-01-16T23:25:12.669Z,8.33
2019-01-16T23:28:31.576Z,7.40
2019-01-16T23:31:57.685Z,11.03
2019-01-16T23:35:12.158Z,19.23
2019-01-16T23:38:36.740Z,11.40
2019-01-16T23:41:58.590Z,13.77
2019-01-16T23:45:21.392Z,6.43
2019-01-16T23:48:48.893Z,7.10
2019-01-16T23:52:11.796Z,6.20
2019-01-16T23:55:46.745Z,9.00
2019-01-16T23:59:00.944Z,9.33
